Time;durP1;ratioP1;P1;durP2;ratioP2;P2;SDS_P1;SDS_P2;PMS_P1;PMS_P2;Temp;Humidity;BMP_temperature;BMP_pressure;BME280_temperature;BME280_humidity;BME280_pressure;Samples;Min_cycle;Max_cycle;Signal;HPM_P1;HPM_P2
2023/07/27 00:01:55;;;;;;;5.28;1.95;;;;;;;13.00;81.66;96301.19;5070885;28;20048;-77
2023/07/27 00:04:22;;;;;;;5.03;2.17;;;;;;;13.00;81.18;96303.91;5070609;28;20059;-77
2023/07/27 00:06:49;;;;;;;3.90;1.95;;;;;;;13.01;81.84;96300.84;5071139;28;20762;-77
2023/07/27 00:09:16;;;;;;;3.38;2.05;;;;;;;13.00;81.77;96293.78;5070997;28;20048;-76
2023/07/27 00:11:43;;;;;;;3.90;2.15;;;;;;;12.97;80.84;96301.84;5071443;28;20608;-78
2023/07/27 00:14:09;;;;;;;4.55;1.70;;;;;;;12.97;80.99;96299.91;5072340;28;20045;-77
2023/07/27 00:16:36;;;;;;;5.63;1.88;;;;;;;12.97;80.49;96293.63;5065718;28;20079;-77
2023/07/27 00:19:02;;;;;;;4.03;1.80;;;;;;;12.96;80.54;96300.25;5072659;28;20041;-77
2023/07/27 00:21:30;;;;;;;3.13;1.80;;;;;;;12.94;79.14;96299.75;5071512;28;20049;-77
2023/07/27 00:23:56;;;;;;;3.45;1.80;;;;;;;12.97;80.50;96288.97;5073512;28;20036;-77
2023/07/27 00:26:23;;;;;;;5.00;2.08;;;;;;;12.96;80.36;96294.78;5072561;28;20403;-76
2023/07/27 00:28:49;;;;;;;3.50;2.00;;;;;;;12.88;79.47;96281.97;5073438;28;20109;-77
2023/07/27 00:31:16;;;;;;;3.75;1.92;;;;;;;12.88;80.40;96284.72;5072097;28;20040;-76
2023/07/27 00:33:42;;;;;;;3.78;1.90;;;;;;;12.89;79.73;96287.09;5072632;28;20044;-77
2023/07/27 00:36:09;;;;;;;5.25;1.98;;;;;;;12.90;79.64;96277.78;5071698;28;20048;-76
2023/07/27 00:38:37;;;;;;;3.60;1.60;;;;;;;12.93;80.58;96285.31;5071486;28;20045;-75
2023/07/27 00:41:04;;;;;;;2.85;2.08;;;;;;;12.86;80.27;96282.31;5067494;28;20048;-77
2023/07/27 00:43:31;;;;;;;3.63;1.50;;;;;;;12.84;79.38;96283.78;5070551;28;20068;-77
2023/07/27 00:45:58;;;;;;;2.95;1.45;;;;;;;12.86;79.58;96281.53;5071461;28;20610;-77
2023/07/27 00:48:24;;;;;;;6.53;1.90;;;;;;;12.84;79.79;96291.97;5070962;28;20052;-77
2023/07/27 00:50:52;;;;;;;4.13;1.83;;;;;;;12.79;80.40;96285.59;5072032;28;20041;-78
2023/07/27 00:53:19;;;;;;;4.47;1.58;;;;;;;12.78;79.30;96289.44;5068703;28;20048;-77
2023/07/27 00:55:47;;;;;;;3.95;2.05;;;;;;;12.78;79.58;96288.63;5071261;28;20047;-77
2023/07/27 00:58:14;;;;;;;2.35;1.52;;;;;;;12.77;79.90;96285.09;5070548;28;20040;-76
2023/07/27 01:00:42;;;;;;;2.67;1.73;;;;;;;12.73;80.34;96278.72;5070973;28;20043;-77
2023/07/27 01:03:09;;;;;;;4.80;1.90;;;;;;;12.75;80.37;96279.19;5070342;28;20062;-77
2023/07/27 01:05:36;;;;;;;3.55;1.63;;;;;;;12.76;79.90;96272.59;5070892;28;20051;-77
2023/07/27 01:08:03;;;;;;;3.45;1.80;;;;;;;12.76;79.90;96275.31;5071694;28;20043;-77
2023/07/27 01:10:40;;;;;;;3.47;1.60;;;;;;;12.73;78.19;96273.25;5071593;28;20048;-77
2023/07/27 01:13:15;;;;;;;2.95;1.60;;;;;;;12.72;79.48;96271.66;5067476;28;20503;-77
2023/07/27 01:15:49;;;;;;;3.40;1.60;;;;;;;12.64;80.18;96267.06;5064531;28;20048;-77
2023/07/27 01:18:23;;;;;;;3.08;1.50;;;;;;;12.58;80.95;96259.38;5072588;28;20052;-77
2023/07/27 01:20:58;;;;;;;3.67;1.67;;;;;;;12.58;80.19;96254.75;5069377;28;20052;-77
2023/07/27 01:24:01;;;;;;;5.00;1.75;;;;;;;12.58;79.21;96253.91;5070019;28;20045;-78
2023/07/27 01:26:49;;;;;;;2.22;1.70;;;;;;;12.59;79.23;96245.41;5073839;28;20547;-77
2023/07/27 01:29:39;;;;;;;3.50;1.75;;;;;;;12.54;79.03;96251.88;5074099;28;20050;-77
2023/07/27 01:32:10;;;;;;;2.90;1.90;;;;;;;12.54;78.98;96242.88;5069352;28;20045;-79
2023/07/27 01:34:40;;;;;;;2.92;1.50;;;;;;;12.50;78.22;96241.94;5074696;28;20044;-77
2023/07/27 01:37:10;;;;;;;2.53;1.75;;;;;;;12.47;78.79;96254.31;5073866;28;20051;-77
2023/07/27 01:39:40;;;;;;;2.90;1.80;;;;;;;12.47;78.50;96253.53;5072979;28;20036;-78
2023/07/27 01:42:11;;;;;;;2.97;1.83;;;;;;;12.47;77.86;96250.78;5073861;28;20096;-78
2023/07/27 01:44:38;;;;;;;4.07;2.15;;;;;;;12.47;78.28;96258.97;5075236;28;20048;-77
2023/07/27 01:47:07;;;;;;;2.80;1.65;;;;;;;12.43;79.15;96247.16;5073923;28;20044;-78
2023/07/27 01:49:36;;;;;;;3.10;1.50;;;;;;;12.39;79.49;96257.91;5074249;28;20046;-77
2023/07/27 01:52:03;;;;;;;2.28;1.65;;;;;;;12.43;78.36;96253.41;5067760;28;20527;-77
2023/07/27 01:54:31;;;;;;;4.10;1.92;;;;;;;12.49;78.55;96254.00;5073742;28;20055;-78
2023/07/27 01:56:59;;;;;;;3.10;1.73;;;;;;;12.52;78.26;96247.84;5073758;28;20047;-77
2023/07/27 01:59:26;;;;;;;3.75;1.70;;;;;;;12.51;77.02;96249.00;5069601;28;20045;-77
2023/07/27 02:01:53;;;;;;;3.35;1.67;;;;;;;12.50;78.46;96248.19;5069595;28;20483;-77
2023/07/27 02:04:21;;;;;;;2.60;1.65;;;;;;;12.50;78.31;96241.94;5069458;28;20052;-76
2023/07/27 02:06:51;;;;;;;3.17;1.50;;;;;;;12.54;79.09;96243.69;5070111;28;20048;-77
2023/07/27 02:09:17;;;;;;;4.88;1.50;;;;;;;12.54;78.38;96242.88;5069595;28;20127;-77
2023/07/27 02:11:47;;;;;;;4.53;1.73;;;;;;;12.51;78.92;96243.53;5068628;28;20131;-77
2023/07/27 02:14:21;;;;;;;4.90;1.50;;;;;;;12.47;79.14;96242.59;5063335;28;20492;-78
2023/07/27 02:16:54;;;;;;;2.78;1.80;;;;;;;12.38;79.58;96231.75;5069417;28;20048;-78
2023/07/27 02:19:30;;;;;;;2.72;1.77;;;;;;;12.30;79.83;96240.00;5069374;28;20051;-76
2023/07/27 02:21:58;;;;;;;2.13;1.50;;;;;;;12.25;80.16;96238.25;5062879;28;20053;-77
2023/07/27 02:24:25;;;;;;;4.22;1.50;;;;;;;12.25;79.58;96235.53;5071930;28;20484;-77
2023/07/27 02:26:51;;;;;;;2.72;1.58;;;;;;;12.24;79.49;96229.28;5073407;28;20048;-77
2023/07/27 02:29:18;;;;;;;3.00;1.83;;;;;;;12.20;79.28;96227.53;5073221;28;20515;-77
2023/07/27 02:31:44;;;;;;;2.05;1.42;;;;;;;12.24;78.34;96229.28;5073128;28;20040;-77
2023/07/27 02:34:11;;;;;;;2.72;1.45;;;;;;;12.21;77.98;96227.19;5072900;28;20048;-76
2023/07/27 02:36:39;;;;;;;6.03;1.67;;;;;;;12.19;77.78;96232.19;5073265;28;20048;-77
2023/07/27 02:39:05;;;;;;;6.80;1.80;;;;;;;12.25;78.31;96236.31;5072698;28;20048;-77
2023/07/27 02:41:32;;;;;;;3.47;1.80;;;;;;;12.19;77.46;96231.41;5072870;28;20068;-77
2023/07/27 02:43:58;;;;;;;5.97;1.70;;;;;;;12.20;77.95;96222.88;5073228;28;20044;-78
2023/07/27 02:46:25;;;;;;;2.88;1.88;;;;;;;12.18;77.94;96227.88;5067086;28;20052;-78
2023/07/27 02:48:53;;;;;;;3.60;1.80;;;;;;;12.15;78.14;96225.78;5065362;28;20416;-79
2023/07/27 02:51:19;;;;;;;4.45;1.60;;;;;;;12.16;78.08;96227.41;5072404;28;20074;-77
2023/07/27 02:53:47;;;;;;;4.53;2.05;;;;;;;12.11;78.17;96232.22;5072783;28;20503;-77
2023/07/27 02:56:14;;;;;;;4.00;2.13;;;;;;;12.08;77.05;96230.97;5072546;28;20069;-76
2023/07/27 02:58:40;;;;;;;3.90;1.95;;;;;;;12.13;77.50;96228.06;5072848;28;20063;-77
2023/07/27 03:01:07;;;;;;;3.65;2.05;;;;;;;12.19;77.36;96229.47;5072165;28;20040;-76
2023/07/27 03:03:33;;;;;;;2.72;1.90;;;;;;;12.19;76.66;96226.72;5072759;28;20405;-78
2023/07/27 03:06:01;;;;;;;5.25;1.73;;;;;;;12.22;77.90;96230.75;5073087;28;20078;-77
2023/07/27 03:08:28;;;;;;;4.32;1.70;;;;;;;12.22;76.90;96234.28;5072009;28;20045;-76
2023/07/27 03:11:01;;;;;;;3.25;1.98;;;;;;;12.18;76.91;96225.13;5072425;28;20041;-77
2023/07/27 03:13:27;;;;;;;2.72;1.73;;;;;;;12.21;76.74;96229.91;5072196;28;20040;-77
2023/07/27 03:15:55;;;;;;;4.13;2.33;;;;;;;12.17;76.38;96223.53;5072698;28;20048;-77
2023/07/27 03:18:22;;;;;;;4.88;1.80;;;;;;;12.19;77.34;96231.41;5072035;28;20048;-77
2023/07/27 03:20:49;;;;;;;5.05;2.30;;;;;;;12.17;77.22;96220.03;5072428;28;20069;-78
2023/07/27 03:23:15;;;;;;;3.95;1.98;;;;;;;12.12;77.30;96226.47;5072027;28;20044;-77
2023/07/27 03:25:42;;;;;;;3.72;1.80;;;;;;;12.08;77.12;96220.06;5072130;28;20051;-77
2023/07/27 03:28:10;;;;;;;3.10;2.00;;;;;;;12.04;77.62;96219.13;5071587;28;20044;-78
2023/07/27 03:30:38;;;;;;;3.80;1.75;;;;;;;11.99;78.53;96219.31;5072010;28;20037;-77
2023/07/27 03:33:05;;;;;;;4.13;1.83;;;;;;;11.95;78.37;96221.09;5065471;28;20044;-77
2023/07/27 03:35:31;;;;;;;3.25;1.98;;;;;;;11.90;78.79;96213.91;5071226;28;20047;-76
2023/07/27 03:37:58;;;;;;;3.85;1.50;;;;;;;11.90;79.07;96208.47;5072338;28;20048;-76
2023/07/27 03:40:24;;;;;;;4.68;2.10;;;;;;;11.81;78.62;96204.16;5067720;28;20408;-77
2023/07/27 03:42:51;;;;;;;3.63;1.80;;;;;;;11.77;78.86;96204.78;5071712;28;20068;-77
2023/07/27 03:45:19;;;;;;;2.38;1.63;;;;;;;11.76;78.82;96203.19;5071710;28;20510;-78
2023/07/27 03:47:46;;;;;;;3.47;1.65;;;;;;;11.76;78.80;96208.66;5072155;28;20036;-76
2023/07/27 03:50:13;;;;;;;4.97;2.28;;;;;;;11.78;78.77;96205.59;5063381;28;20053;-76
2023/07/27 03:52:40;;;;;;;4.28;2.22;;;;;;;11.79;78.92;96206.38;5079205;28;20044;-77
2023/07/27 03:55:07;;;;;;;2.72;1.80;;;;;;;11.75;79.12;96201.59;5062221;28;20047;-76
2023/07/27 03:57:34;;;;;;;5.47;2.42;;;;;;;11.73;79.26;96203.84;5070803;28;20411;-77
2023/07/27 04:00:01;;;;;;;4.03;1.90;;;;;;;11.76;79.30;96202.41;5071568;28;20120;-76
2023/07/27 04:02:29;;;;;;;2.80;1.90;;;;;;;11.80;78.76;96199.78;5070759;28;20120;-77
2023/07/27 04:04:58;;;;;;;4.90;2.00;;;;;;;11.88;78.31;96204.44;5063748;28;20040;-77
2023/07/27 04:07:24;;;;;;;4.93;1.98;;;;;;;11.96;78.06;96200.88;5071490;28;20127;-77
2023/07/27 04:09:49;;;;;;;6.05;2.15;;;;;;;11.87;77.79;96197.41;5071436;28;20522;-77
2023/07/27 04:12:16;;;;;;;4.97;2.30;;;;;;;11.62;78.73;96202.63;5070598;28;20053;-76
2023/07/27 04:14:43;;;;;;;5.72;2.45;;;;;;;11.69;78.23;96192.00;5071593;28;20047;-77
2023/07/27 04:17:10;;;;;;;3.17;1.85;;;;;;;11.77;78.18;96193.88;5071255;28;20040;-77
2023/07/27 04:19:37;;;;;;;3.13;1.90;;;;;;;11.86;78.39;96190.34;5071636;28;20117;-77
2023/07/27 04:22:04;;;;;;;4.38;2.40;;;;;;;11.90;77.94;96194.00;5070249;28;20039;-77
2023/07/27 04:24:31;;;;;;;4.05;2.03;;;;;;;11.96;78.50;96189.97;5071557;28;20044;-77
2023/07/27 04:26:57;;;;;;;3.10;2.15;;;;;;;11.95;78.80;96189.16;5071248;28;20407;-77
2023/07/27 04:29:24;;;;;;;3.65;2.10;;;;;;;11.98;79.23;96187.69;5068503;28;20047;-77
2023/07/27 04:31:50;;;;;;;6.30;2.03;;;;;;;12.01;79.25;96181.59;5071224;28;20049;-77
2023/07/27 04:34:18;;;;;;;5.38;2.28;;;;;;;11.89;77.36;96189.66;5071106;28;20519;-76
2023/07/27 04:36:47;;;;;;;5.10;2.03;;;;;;;11.93;77.38;96185.16;5071575;28;20385;-77
2023/07/27 04:39:14;;;;;;;4.28;1.92;;;;;;;11.20;79.24;96191.56;5070774;28;20045;-77
2023/07/27 04:41:40;;;;;;;3.83;2.03;;;;;;;11.48;79.37;96188.41;5070599;28;20067;-77
2023/07/27 04:44:07;;;;;;;5.25;2.20;;;;;;;11.53;79.46;96185.50;5070634;28;20041;-77
2023/07/27 04:46:33;;;;;;;4.63;2.38;;;;;;;11.69;79.64;96199.38;5071220;28;20492;-77
2023/07/27 04:49:00;;;;;;;4.72;2.22;;;;;;;11.76;79.44;96192.28;5063016;28;20441;-77
2023/07/27 04:51:27;;;;;;;6.82;2.33;;;;;;;11.66;78.84;96186.41;5070270;28;20044;-77
2023/07/27 04:53:55;;;;;;;3.20;1.90;;;;;;;11.84;79.54;96192.59;5067131;28;20048;-77
2023/07/27 04:56:21;;;;;;;5.22;2.35;;;;;;;11.87;79.78;96187.28;5070022;28;20389;-78
2023/07/27 04:58:49;;;;;;;4.38;2.10;;;;;;;11.56;79.42;96193.03;5070448;28;20423;-77
2023/07/27 05:01:16;;;;;;;3.58;1.92;;;;;;;11.84;79.30;96181.69;5063817;28;20526;-76
2023/07/27 05:03:42;;;;;;;3.63;2.30;;;;;;;11.99;79.01;96189.28;5065516;28;20052;-76
2023/07/27 05:06:09;;;;;;;2.90;1.98;;;;;;;12.14;80.22;96185.97;5068333;28;20040;-77
2023/07/27 05:08:35;;;;;;;4.75;2.20;;;;;;;12.25;79.64;96187.19;5068348;28;20075;-77
2023/07/27 05:11:06;;;;;;;4.75;2.17;;;;;;;12.33;78.80;96192.94;5059677;28;20051;-77
2023/07/27 05:13:32;;;;;;;5.53;2.35;;;;;;;12.19;77.35;96193.97;5068479;28;20055;-76
2023/07/27 05:15:59;;;;;;;3.67;1.98;;;;;;;12.16;77.73;96189.19;5069505;28;20041;-80
2023/07/27 05:18:26;;;;;;;4.40;2.10;;;;;;;12.21;77.71;96188.16;5069686;28;20133;-78
2023/07/27 05:20:52;;;;;;;5.20;2.03;;;;;;;12.34;77.91;96199.97;5064064;28;20044;-77
2023/07/27 05:23:19;;;;;;;4.03;1.70;;;;;;;12.41;76.79;96192.03;5068172;28;20698;-77
2023/07/27 05:25:46;;;;;;;2.78;1.70;;;;;;;12.30;76.97;96194.38;5064891;28;20049;-76
2023/07/27 05:28:14;;;;;;;3.13;1.85;;;;;;;12.22;77.62;96184.34;5063737;28;20063;-77
2023/07/27 05:30:42;;;;;;;3.33;2.17;;;;;;;12.28;78.41;96191.19;5068609;28;20047;-78
2023/07/27 05:33:09;;;;;;;4.10;2.10;;;;;;;12.37;77.84;96177.44;5067214;28;20048;-77
2023/07/27 05:35:35;;;;;;;7.70;2.13;;;;;;;12.48;77.78;96178.66;5068509;28;20041;-77
2023/07/27 05:38:02;;;;;;;3.20;2.03;;;;;;;12.37;77.34;96177.44;5067660;28;20048;-76
2023/07/27 05:40:28;;;;;;;4.90;2.10;;;;;;;12.34;77.29;96178.13;5068948;28;20403;-77
2023/07/27 05:42:55;;;;;;;3.90;1.65;;;;;;;12.41;78.01;96178.38;5070218;28;20044;-76
2023/07/27 05:45:22;;;;;;;3.28;1.70;;;;;;;12.58;78.87;96172.81;5069857;28;20052;-76
2023/07/27 05:47:49;;;;;;;4.30;2.08;;;;;;;12.66;77.95;96174.63;5070532;28;20461;-77
2023/07/27 05:50:16;;;;;;;5.07;3.17;;;;;;;12.58;76.62;96172.81;5070035;28;20041;-77
2023/07/27 05:52:42;;;;;;;4.80;2.95;;;;;;;12.52;77.81;96172.19;5070878;28;20037;-77
2023/07/27 05:55:09;;;;;;;5.70;2.17;;;;;;;12.53;77.23;96170.28;5070145;28;20044;-77
2023/07/27 05:57:35;;;;;;;5.35;2.17;;;;;;;12.73;77.03;96163.16;5070541;28;20051;-78
2023/07/27 06:00:02;;;;;;;6.32;2.70;;;;;;;12.77;77.58;96164.88;5074035;28;20044;-77
2023/07/27 06:02:30;;;;;;;4.32;1.90;;;;;;;12.95;76.40;96164.72;5075174;28;20048;-77
2023/07/27 06:04:56;;;;;;;3.60;2.10;;;;;;;13.01;77.10;96163.38;5075029;28;20770;-77
2023/07/27 06:07:23;;;;;;;3.40;1.80;;;;;;;12.79;77.39;96161.84;5075482;28;20048;-77
2023/07/27 06:09:49;;;;;;;5.60;2.50;;;;;;;13.09;78.18;96175.34;5074506;28;20037;-77
2023/07/27 06:12:16;;;;;;;3.25;1.83;;;;;;;13.24;77.52;96161.84;5074596;28;20052;-77
2023/07/27 06:14:44;;;;;;;3.35;2.00;;;;;;;13.17;77.72;96160.78;5075012;28;20094;-77
2023/07/27 06:17:10;;;;;;;3.53;2.30;;;;;;;13.13;78.04;96163.41;5074140;28;20137;-77
2023/07/27 06:19:38;;;;;;;3.20;2.10;;;;;;;13.31;78.29;96164.00;5074427;28;20043;-77
2023/07/27 06:22:05;;;;;;;4.25;2.40;;;;;;;13.39;77.80;96168.59;5074097;28;20040;-77
2023/07/27 06:24:31;;;;;;;3.03;2.03;;;;;;;13.50;77.45;96169.72;5075262;28;20042;-77
2023/07/27 06:26:58;;;;;;;2.83;2.10;;;;;;;13.58;77.32;96163.38;5075299;28;20032;-78
2023/07/27 06:29:24;;;;;;;4.03;2.20;;;;;;;13.69;77.12;96165.66;5075131;28;20123;-77
2023/07/27 06:31:51;;;;;;;7.47;2.17;;;;;;;13.65;77.85;96167.47;5075157;28;20056;-77
2023/07/27 06:34:17;;;;;;;3.85;2.03;;;;;;;13.76;76.73;96166.66;5074651;28;20046;-77
2023/07/27 06:36:45;;;;;;;3.47;1.95;;;;;;;13.91;75.46;96170.66;5074810;28;20041;-77
2023/07/27 06:39:12;;;;;;;3.75;1.73;;;;;;;14.01;74.70;96169.38;5073474;28;20055;-77
2023/07/27 06:41:38;;;;;;;3.65;2.10;;;;;;;13.95;76.41;96163.34;5073413;28;20416;-77
2023/07/27 06:44:05;;;;;;;4.43;2.13;;;;;;;14.08;76.05;96175.06;5072967;28;20072;-76
2023/07/27 06:46:32;;;;;;;4.13;2.20;;;;;;;14.19;77.08;96167.97;5073985;28;20047;-76
2023/07/27 06:48:58;;;;;;;3.45;2.03;;;;;;;14.03;76.02;96164.34;5073161;28;20495;-77
2023/07/27 06:51:25;;;;;;;3.80;2.65;;;;;;;14.16;75.26;96152.25;5072982;28;20044;-77
2023/07/27 06:53:53;;;;;;;3.78;2.22;;;;;;;14.17;75.80;96159.31;5073484;28;20047;-78
2023/07/27 06:56:19;;;;;;;3.17;2.00;;;;;;;14.30;76.46;96152.69;5073388;28;20044;-76
2023/07/27 06:58:46;;;;;;;3.90;1.92;;;;;;;14.34;75.51;96152.75;5073929;28;20036;-76
2023/07/27 07:01:12;;;;;;;3.63;2.10;;;;;;;14.45;75.59;96150.34;5072993;28;20483;-77
2023/07/27 07:03:39;;;;;;;4.97;2.00;;;;;;;14.47;75.71;96156.28;5074353;28;20060;-78
2023/07/27 07:06:05;;;;;;;6.75;2.33;;;;;;;14.50;74.91;96155.59;5073319;28;20041;-76
2023/07/27 07:08:32;;;;;;;3.30;1.80;;;;;;;14.55;73.59;96147.94;5074227;28;20044;-78
2023/07/27 07:11:00;;;;;;;3.17;1.83;;;;;;;14.63;74.13;96154.41;5071843;28;20041;-77
2023/07/27 07:13:26;;;;;;;3.42;2.20;;;;;;;14.70;74.17;96143.66;5074060;28;20041;-77
2023/07/27 07:15:53;;;;;;;5.65;2.22;;;;;;;14.74;73.92;96139.06;5073894;28;20041;-77
2023/07/27 07:18:19;;;;;;;4.10;2.08;;;;;;;14.76;73.74;96136.75;5073709;28;20044;-77
2023/07/27 07:20:46;;;;;;;5.68;2.10;;;;;;;14.85;73.62;96145.63;5074022;28;20036;-78
2023/07/27 07:23:12;;;;;;;4.72;2.28;;;;;;;14.83;72.15;96130.69;5073567;28;20036;-78
2023/07/27 07:25:40;;;;;;;6.20;2.03;;;;;;;14.93;73.62;96129.34;5074415;28;20403;-78
2023/07/27 07:28:09;;;;;;;5.00;1.80;;;;;;;15.04;73.69;96135.94;5073967;28;20044;-77
2023/07/27 07:30:38;;;;;;;6.82;1.77;;;;;;;15.14;73.35;96136.22;5074430;28;20045;-77
2023/07/27 07:33:04;;;;;;;4.72;2.08;;;;;;;15.13;70.80;96136.56;5074081;28;20045;-77
2023/07/27 07:35:31;;;;;;;3.38;2.13;;;;;;;15.14;70.33;96140.91;5074490;28;20048;-77
2023/07/27 07:37:57;;;;;;;4.63;2.00;;;;;;;15.20;70.03;96125.78;5074459;28;20110;-77
2023/07/27 07:40:24;;;;;;;4.57;1.92;;;;;;;15.32;70.28;96128.44;5074225;28;20040;-77
2023/07/27 07:42:51;;;;;;;5.55;2.00;;;;;;;15.40;70.41;96127.47;5079223;28;20051;-77
2023/07/27 07:45:19;;;;;;;4.18;1.92;;;;;;;15.43;68.87;96131.44;5077868;28;20048;-77
2023/07/27 07:47:45;;;;;;;3.45;1.92;;;;;;;15.52;68.42;96125.78;5077779;28;20041;-77
2023/07/27 07:50:12;;;;;;;2.33;1.67;;;;;;;15.65;68.67;96121.81;5078248;28;20108;-77
2023/07/27 07:52:39;;;;;;;3.15;1.77;;;;;;;15.79;68.63;96127.63;5076921;28;20118;-76
2023/07/27 07:55:07;;;;;;;3.08;1.67;;;;;;;15.90;67.28;96119.63;5077077;28;20102;-77
2023/07/27 07:57:33;;;;;;;3.13;1.75;;;;;;;16.03;67.11;96131.31;5079112;28;20040;-76
2023/07/27 08:00:00;;;;;;;3.55;1.90;;;;;;;16.12;67.17;96123.66;5076077;28;20054;-77
2023/07/27 08:02:28;;;;;;;4.70;1.85;;;;;;;16.16;63.74;96108.03;5075309;28;20047;-77
2023/07/27 08:04:54;;;;;;;5.35;2.10;;;;;;;16.27;64.94;96109.06;5077531;28;20041;-77
2023/07/27 08:07:21;;;;;;;4.70;1.80;;;;;;;16.34;62.01;96109.22;5076672;28;20040;-77
2023/07/27 08:09:47;;;;;;;2.50;1.60;;;;;;;16.40;63.68;96102.28;5076504;28;20044;-77
2023/07/27 08:12:14;;;;;;;3.83;1.77;;;;;;;16.48;63.44;96102.41;5074637;28;20408;-77
2023/07/27 08:14:40;;;;;;;4.47;1.70;;;;;;;16.57;62.84;96089.25;5077483;28;20059;-77
2023/07/27 08:17:07;;;;;;;3.72;2.17;;;;;;;16.66;63.65;96093.38;5076769;28;20044;-77
2023/07/27 08:19:35;;;;;;;5.57;1.80;;;;;;;16.75;62.12;96095.91;5077084;28;20045;-77
2023/07/27 08:22:02;;;;;;;4.13;1.95;;;;;;;16.80;62.29;96089.31;5076522;28;20049;-75
2023/07/27 08:24:29;;;;;;;3.60;1.65;;;;;;;16.79;61.65;96085.78;5076722;28;20496;-77
2023/07/27 08:26:55;;;;;;;5.57;2.05;;;;;;;16.90;61.47;96078.50;5078579;28;20555;-76
2023/07/27 08:29:22;;;;;;;3.35;1.90;;;;;;;17.00;62.32;96073.59;5077786;28;20108;-78
2023/07/27 08:31:50;;;;;;;3.78;1.90;;;;;;;16.98;59.54;96078.66;5072489;28;20055;-77
2023/07/27 08:34:17;;;;;;;4.07;1.98;;;;;;;17.04;60.96;96085.44;5070110;28;20170;-77
2023/07/27 08:36:47;;;;;;;2.65;1.50;;;;;;;17.16;62.61;96074.25;5071541;28;20058;-77
2023/07/27 08:39:13;;;;;;;4.03;1.90;;;;;;;17.23;58.85;96074.38;5071216;28;20068;-77
2023/07/27 08:41:40;;;;;;;2.20;1.65;;;;;;;17.32;58.04;96074.13;5071846;28;20047;-77
2023/07/27 08:44:07;;;;;;;2.58;1.80;;;;;;;17.40;56.63;96082.13;5071289;28;20045;-77
2023/07/27 08:46:34;;;;;;;3.53;1.70;;;;;;;17.50;57.43;96077.19;5071232;28;20040;-77
2023/07/27 08:49:02;;;;;;;3.00;1.80;;;;;;;17.55;57.20;96074.09;5072307;28;20037;-77
2023/07/27 08:51:31;;;;;;;3.15;1.70;;;;;;;17.55;56.83;96065.84;5071778;28;20049;-78
2023/07/27 08:53:58;;;;;;;4.43;1.95;;;;;;;17.60;58.54;96065.53;5072202;28;20051;-77
2023/07/27 08:56:25;;;;;;;2.58;1.73;;;;;;;17.63;58.07;96067.53;5072349;28;20404;-77
2023/07/27 08:58:52;;;;;;;3.17;1.73;;;;;;;17.68;56.58;96065.25;5072337;28;20044;-78
2023/07/27 09:01:19;;;;;;;3.85;1.63;;;;;;;17.76;56.75;96066.19;5071065;28;20044;-78
2023/07/27 09:03:46;;;;;;;3.33;1.50;;;;;;;17.82;54.44;96070.22;5071763;28;20033;-77
2023/07/27 09:06:12;;;;;;;3.47;1.92;;;;;;;17.86;52.74;96068.31;5071606;28;20048;-77
2023/07/27 09:08:39;;;;;;;3.75;1.90;;;;;;;17.87;52.15;96063.59;5071829;28;20067;-77
2023/07/27 09:11:10;;;;;;;2.92;1.70;;;;;;;17.90;52.79;96058.13;5070146;28;20037;-76
2023/07/27 09:13:38;;;;;;;4.88;2.20;;;;;;;17.97;54.28;96060.97;5071252;28;20505;-77
2023/07/27 09:16:06;;;;;;;3.38;1.80;;;;;;;17.91;51.85;96062.47;5070867;28;20056;-77
2023/07/27 09:18:35;;;;;;;2.67;1.63;;;;;;;17.82;51.47;96064.72;5070762;28;20090;-76
2023/07/27 09:21:09;;;;;;;3.15;1.70;;;;;;;17.89;52.83;96053.00;5070761;28;20044;-77
2023/07/27 09:23:36;;;;;;;2.58;1.70;;;;;;;17.95;53.83;96057.00;5071340;28;20075;-78
2023/07/27 09:26:03;;;;;;;2.35;1.60;;;;;;;18.00;53.89;96049.19;5070277;28;20048;-77
2023/07/27 09:28:32;;;;;;;2.60;1.70;;;;;;;17.87;53.72;96047.84;5071078;28;20052;-76
2023/07/27 09:31:00;;;;;;;3.20;1.95;;;;;;;18.02;54.30;96050.81;5070938;28;20043;-78
2023/07/27 09:33:26;;;;;;;2.45;1.60;;;;;;;18.09;55.35;96040.66;5070291;28;20098;-77
2023/07/27 09:35:54;;;;;;;3.30;1.63;;;;;;;18.19;55.70;96033.72;5070729;28;20510;-77
2023/07/27 09:38:24;;;;;;;2.92;1.75;;;;;;;18.29;54.00;96037.75;5070308;28;20067;-77
2023/07/27 09:40:51;;;;;;;4.13;1.83;;;;;;;18.40;53.61;96033.97;5070553;28;20101;-77
2023/07/27 09:43:18;;;;;;;2.45;1.60;;;;;;;18.47;54.32;96022.22;5070351;28;20055;-77
2023/07/27 09:45:46;;;;;;;4.72;1.65;;;;;;;18.57;53.29;96034.53;5070036;28;20048;-77
2023/07/27 09:48:13;;;;;;;2.72;1.63;;;;;;;18.64;51.71;96031.88;5069890;28;20036;-76
2023/07/27 09:50:42;;;;;;;2.80;1.77;;;;;;;18.73;51.47;96035.91;5070260;28;20064;-77
2023/07/27 09:53:11;;;;;;;2.00;1.67;;;;;;;18.75;50.55;96032.81;5069732;28;20493;-77
2023/07/27 09:55:39;;;;;;;2.70;1.60;;;;;;;18.80;50.99;96035.22;5070602;28;20438;-77
2023/07/27 09:58:07;;;;;;;3.38;1.90;;;;;;;18.75;49.69;96030.03;5070100;28;20045;-77
2023/07/27 10:00:34;;;;;;;2.17;1.50;;;;;;;18.77;50.77;96030.44;5071052;28;20048;-77
2023/07/27 10:03:02;;;;;;;2.97;1.83;;;;;;;18.74;50.37;96028.44;5070637;28;20052;-77
2023/07/27 10:05:29;;;;;;;3.50;1.80;;;;;;;18.75;52.54;96024.53;5070623;28;20041;-76
2023/07/27 10:07:57;;;;;;;2.92;1.65;;;;;;;18.80;51.35;96015.91;5070344;28;20044;-77
2023/07/27 10:10:35;;;;;;;4.95;1.80;;;;;;;18.82;51.02;96010.78;5069502;28;20047;-77
2023/07/27 10:13:06;;;;;;;2.90;1.70;;;;;;;18.90;51.86;96012.47;5069924;28;20408;-77
2023/07/27 10:15:38;;;;;;;3.20;1.83;;;;;;;18.99;50.96;96003.84;5070318;28;20045;-77
2023/07/27 10:18:06;;;;;;;3.28;2.10;;;;;;;19.09;50.48;95999.59;5069616;28;20040;-77
2023/07/27 10:20:34;;;;;;;3.78;1.70;;;;;;;19.27;51.02;95995.03;5070113;28;20041;-77
2023/07/27 10:23:11;;;;;;;2.22;1.65;;;;;;;19.62;49.02;95993.69;5070128;28;20053;-76
2023/07/27 10:26:03;;;;;;;4.10;2.00;;;;;;;20.24;49.27;95988.88;5069468;28;20052;-77
2023/07/27 10:28:31;;;;;;;2.70;1.65;;;;;;;20.87;46.22;95983.91;5061361;28;20446;-77
2023/07/27 10:31:19;;;;;;;4.45;1.67;;;;;;;21.56;44.13;95980.78;5069807;28;20052;-77
2023/07/27 10:33:48;;;;;;;3.53;1.73;;;;;;;22.01;44.08;95986.56;5070034;28;20040;-77
2023/07/27 10:36:15;;;;;;;4.57;1.77;;;;;;;22.30;43.70;95986.50;5069900;28;20047;-77
2023/07/27 10:38:50;;;;;;;3.13;1.90;;;;;;;22.61;44.52;95979.22;5070703;28;20106;-77
2023/07/27 10:41:16;;;;;;;2.45;1.75;;;;;;;22.69;43.16;95974.41;5070094;28;20121;-77
2023/07/27 10:44:15;;;;;;;2.25;1.60;;;;;;;22.72;41.56;95985.50;5071070;28;20040;-77
2023/07/27 10:46:46;;;;;;;3.58;1.70;;;;;;;22.51;45.17;95988.38;5074767;28;20043;-77
2023/07/27 10:49:16;;;;;;;3.15;1.90;;;;;;;22.44;41.83;95975.31;5073584;28;20098;-77
2023/07/27 10:51:44;;;;;;;2.88;1.92;;;;;;;22.20;41.99;95979.03;5074486;28;20044;-77
2023/07/27 10:54:11;;;;;;;4.32;2.22;;;;;;;21.34;43.44;95970.88;5073731;28;20047;-78
2023/07/27 10:56:38;;;;;;;6.03;2.10;;;;;;;21.68;43.41;95962.94;5073823;28;20052;-78
2023/07/27 10:59:04;;;;;;;2.75;1.77;;;;;;;21.86;44.39;95962.88;5073308;28;20045;-77
2023/07/27 11:01:33;;;;;;;4.38;1.80;;;;;;;22.09;44.91;95952.09;5073694;28;20422;-77
2023/07/27 11:04:00;;;;;;;4.25;1.80;;;;;;;22.02;40.62;95949.34;5073993;28;20044;-78
2023/07/27 11:06:31;;;;;;;3.00;1.67;;;;;;;21.68;38.28;95945.50;5073193;28;20559;-78
2023/07/27 11:08:58;;;;;;;4.10;2.00;;;;;;;21.82;39.92;95939.91;5073248;28;20053;-77
2023/07/27 11:11:26;;;;;;;3.97;1.80;;;;;;;21.69;38.96;95944.31;5073164;28;20656;-78
2023/07/27 11:13:52;;;;;;;2.92;1.85;;;;;;;21.58;39.05;95930.50;5073813;28;20075;-77
2023/07/27 11:16:19;;;;;;;3.95;1.80;;;;;;;21.76;40.52;95931.22;5073324;28;20403;-77
2023/07/27 11:18:46;;;;;;;5.15;1.45;;;;;;;21.84;38.80;95940.31;5073787;28;20140;-77
2023/07/27 11:21:12;;;;;;;3.67;1.70;;;;;;;21.61;39.31;95941.56;5073268;28;20044;-77
2023/07/27 11:23:44;;;;;;;4.28;2.08;;;;;;;21.39;39.26;95940.03;5073455;28;20041;-77
2023/07/27 11:26:11;;;;;;;3.33;1.95;;;;;;;21.05;39.56;95932.13;5072606;28;20051;-77
2023/07/27 11:28:38;;;;;;;3.00;1.95;;;;;;;21.08;39.89;95925.78;5073423;28;20047;-78
2023/07/27 11:31:06;;;;;;;3.30;1.75;;;;;;;21.16;39.79;95939.63;5071988;28;20048;-78
2023/07/27 11:33:33;;;;;;;3.80;1.92;;;;;;;21.17;40.65;95932.91;5072823;28;20056;-77
2023/07/27 11:36:00;;;;;;;2.50;1.60;;;;;;;21.02;39.22;95929.34;5073033;28;20041;-77
2023/07/27 11:38:27;;;;;;;4.45;1.95;;;;;;;21.00;39.74;95927.00;5072902;28;20120;-77